Time;durP1;ratioP1;P1;durP2;ratioP2;P2;SDS_P1;SDS_P2;PMS_P1;PMS_P2;Temp;Humidity;BMP_temperature;BMP_pressure;BME280_temperature;BME280_humidity;BME280_pressure;Samples;Min_cycle;Max_cycle;Signal;HPM_P1;HPM_P2
2022/03/18 00:02:14;;;;;;;;;;;2.70;99.90;;;;;;4806852;29;19928;-76
2022/03/18 00:04:39;;;;;;;;;;;2.70;99.90;;;;;;4837543;29;19925;-76
2022/03/18 00:07:05;;;;;;;;;;;2.60;99.90;;;;;;4806895;29;20029;-76
2022/03/18 00:09:30;;;;;;;;;;;2.50;99.90;;;;;;4806526;29;19927;-76
2022/03/18 00:11:57;;;;;;;;;;;2.50;99.90;;;;;;4804198;29;19974;-76
2022/03/18 00:14:22;;;;;;;;;;;2.40;99.90;;;;;;4791728;29;19932;-76
2022/03/18 00:16:48;;;;;;;;;;;2.40;99.90;;;;;;4806522;29;19921;-76
2022/03/18 00:19:13;;;;;;;;;;;2.30;99.90;;;;;;4806934;29;19921;-76
2022/03/18 00:21:39;;;;;;;;;;;2.30;99.90;;;;;;4806724;29;19925;-76
2022/03/18 00:24:05;;;;;;;;;;;2.20;99.90;;;;;;4806602;29;19924;-76
2022/03/18 00:26:30;;;;;;;;;;;2.20;99.90;;;;;;4819281;29;19921;-76
2022/03/18 00:28:56;;;;;;;;;;;2.10;99.90;;;;;;4788688;29;19921;-76
2022/03/18 00:31:21;;;;;;;;;;;2.10;99.90;;;;;;4799470;29;19927;-76
2022/03/18 00:33:47;;;;;;;;;;;2.00;99.90;;;;;;4805868;29;19925;-76
2022/03/18 00:36:12;;;;;;;;;;;2.00;99.90;;;;;;4806366;29;19963;-76
2022/03/18 00:38:39;;;;;;;;;;;1.90;99.90;;;;;;4806388;29;19973;-76
2022/03/18 00:41:05;;;;;;;;;;;1.80;99.90;;;;;;4795807;29;19925;-76
2022/03/18 00:43:30;;;;;;;;;;;1.80;99.90;;;;;;4788476;29;19921;-76
2022/03/18 00:45:56;;;;;;;;;;;1.80;99.90;;;;;;4820573;29;20218;-76
2022/03/18 00:53:51;;;;;;;;;;;1.70;99.90;;;;;;4818417;29;19963;-76
2022/03/18 00:56:16;;;;;;;;;;;1.70;99.90;;;;;;4817721;29;19921;-76
2022/03/18 00:58:43;;;;;;;;;;;1.70;99.90;;;;;;4818790;29;19932;-76
2022/03/18 01:01:08;;;;;;;;;;;1.60;99.90;;;;;;4826813;29;19956;-76
2022/03/18 01:03:34;;;;;;;;;;;1.60;99.90;;;;;;4806117;29;20209;-76
2022/03/18 01:05:59;;;;;;;;;;;1.60;99.90;;;;;;4806332;29;20015;-76
2022/03/18 01:08:25;;;;;;;;;;;1.60;99.90;;;;;;4806167;29;19924;-76
2022/03/18 01:10:50;;;;;;;;;;;1.60;99.90;;;;;;4796632;29;19921;-76
2022/03/18 01:13:16;;;;;;;;;;;1.60;99.90;;;;;;4806220;29;19932;-76
2022/03/18 01:15:41;;;;;;;;;;;1.60;99.90;;;;;;4805749;29;19927;-76
2022/03/18 01:18:07;;;;;;;;;;;1.50;99.90;;;;;;4806262;29;19971;-76
2022/03/18 01:20:32;;;;;;;;;;;1.40;99.90;;;;;;4806039;29;19932;-76
2022/03/18 01:22:58;;;;;;;;;;;1.40;99.90;;;;;;4836380;29;20497;-76
2022/03/18 01:25:23;;;;;;;;;;;1.40;99.90;;;;;;4792516;29;19921;-76
2022/03/18 01:27:49;;;;;;;;;;;1.40;99.90;;;;;;4818367;29;19921;-76
2022/03/18 01:30:14;;;;;;;;;;;1.30;99.90;;;;;;4792432;29;20377;-76
2022/03/18 01:32:40;;;;;;;;;;;1.40;99.90;;;;;;4836372;29;20044;-76
2022/03/18 01:35:06;;;;;;;;;;;1.30;99.90;;;;;;4805705;29;19921;-76
2022/03/18 01:37:31;;;;;;;;;;;1.30;99.90;;;;;;4805739;29;19921;-76
2022/03/18 01:39:57;;;;;;;;;;;1.30;99.90;;;;;;4796549;29;20264;-76
2022/03/18 01:42:22;;;;;;;;;;;1.30;99.90;;;;;;4806410;29;19920;-76
2022/03/18 01:44:48;;;;;;;;;;;1.30;99.90;;;;;;4806245;29;19920;-76
2022/03/18 01:47:13;;;;;;;;;;;1.30;99.90;;;;;;4808933;29;20000;-76
2022/03/18 01:49:39;;;;;;;;;;;1.30;99.90;;;;;;4809415;29;20399;-76
2022/03/18 01:52:08;;;;;;;;;;;1.30;99.90;;;;;;4808971;29;19920;-76
2022/03/18 01:54:50;;;;;;;;;;;1.20;99.90;;;;;;4798925;29;20333;-76
2022/03/18 01:57:23;;;;;;;;;;;1.20;99.90;;;;;;4821048;29;19920;-76
2022/03/18 01:59:49;;;;;;;;;;;1.20;99.90;;;;;;4821575;29;19921;-76
2022/03/18 02:02:15;;;;;;;;;;;1.20;99.90;;;;;;4809288;29;19964;-76
2022/03/18 02:04:41;;;;;;;;;;;1.10;99.90;;;;;;4814930;24;19979;-75
2022/03/18 02:07:07;;;;;;;;;;;1.10;99.90;;;;;;4808492;29;19928;-76
2022/03/18 02:09:33;;;;;;;;;;;1.00;99.90;;;;;;4798189;29;19925;-76
2022/03/18 02:12:00;;;;;;;;;;;1.00;99.90;;;;;;4791735;29;19928;-76
2022/03/18 02:14:33;;;;;;;;;;;1.00;99.90;;;;;;4814750;29;19925;-76
2022/03/18 02:16:58;;;;;;;;;;;1.00;99.90;;;;;;4772923;30;19922;-76
2022/03/18 02:19:23;;;;;;;;;;;1.00;99.90;;;;;;4772718;30;20385;-76
2022/03/18 02:21:52;;;;;;;;;;;1.00;99.90;;;;;;4789694;29;19921;-76
2022/03/18 02:24:18;;;;;;;;;;;1.00;99.90;;;;;;4790851;29;20377;-76
2022/03/18 02:26:49;;;;;;;;;;;1.00;99.90;;;;;;4790300;29;19978;-76
2022/03/18 02:29:15;;;;;;;;;;;1.00;99.90;;;;;;4790480;29;19928;-76
2022/03/18 02:31:42;;;;;;;;;;;1.00;99.90;;;;;;4790502;29;19982;-76
2022/03/18 02:34:07;;;;;;;;;;;1.00;99.90;;;;;;4790281;29;19975;-76
2022/03/18 02:36:33;;;;;;;;;;;1.10;99.90;;;;;;4790230;29;19945;-76
2022/03/18 02:38:58;;;;;;;;;;;1.10;99.90;;;;;;4789707;29;19966;-76
2022/03/18 02:41:24;;;;;;;;;;;1.10;99.90;;;;;;4790059;29;20008;-76
2022/03/18 02:43:49;;;;;;;;;;;1.20;99.90;;;;;;4790558;29;19928;-76
2022/03/18 02:46:15;;;;;;;;;;;1.20;99.90;;;;;;4789696;29;20510;-76
2022/03/18 02:48:40;;;;;;;;;;;1.20;99.90;;;;;;4790092;29;19932;-76
2022/03/18 02:51:07;;;;;;;;;;;1.20;99.90;;;;;;4789844;29;19928;-76
2022/03/18 02:53:32;;;;;;;;;;;1.20;99.90;;;;;;4775001;29;20323;-76
2022/03/18 02:55:58;;;;;;;;;;;1.20;99.90;;;;;;4789772;29;19921;-76
2022/03/18 02:58:23;;;;;;;;;;;1.20;99.90;;;;;;4805696;29;20431;-76
2022/03/18 03:00:49;;;;;;;;;;;1.20;99.90;;;;;;4789747;29;19927;-76
2022/03/18 03:03:15;;;;;;;;;;;1.20;99.90;;;;;;4789728;29;19943;-76
2022/03/18 03:08:25;;;;;;;;;;;1.30;99.90;;;;;;4789326;29;20067;-76
2022/03/18 03:10:51;;;;;;;;;;;1.30;99.90;;;;;;4789816;29;19925;-76
2022/03/18 03:13:16;;;;;;;;;;;1.40;99.90;;;;;;4789787;29;20385;-76
2022/03/18 03:15:42;;;;;;;;;;;1.50;99.90;;;;;;4789209;29;20003;-76
2022/03/18 03:18:07;;;;;;;;;;;1.40;99.90;;;;;;4789708;29;19921;-76
2022/03/18 03:20:33;;;;;;;;;;;1.40;99.90;;;;;;4789270;29;20035;-76
2022/03/18 03:22:58;;;;;;;;;;;1.30;99.90;;;;;;4789754;29;19921;-76
2022/03/18 03:25:24;;;;;;;;;;;1.30;99.90;;;;;;4789460;29;19921;-76
2022/03/18 03:27:53;;;;;;;;;;;1.20;99.90;;;;;;4789348;29;20020;-76
2022/03/18 03:30:18;;;;;;;;;;;1.20;99.90;;;;;;4805485;29;19921;-76
2022/03/18 03:32:44;;;;;;;;;;;1.20;99.90;;;;;;4789373;29;20426;-76
2022/03/18 03:35:10;;;;;;;;;;;1.20;99.90;;;;;;4789532;29;19928;-76
2022/03/18 03:37:36;;;;;;;;;;;1.10;99.90;;;;;;4805387;29;19978;-76
2022/03/18 03:40:02;;;;;;;;;;;1.20;99.90;;;;;;4789007;29;19921;-76
2022/03/18 03:42:27;;;;;;;;;;;1.20;99.90;;;;;;4789202;29;20015;-76
2022/03/18 03:44:53;;;;;;;;;;;1.20;99.90;;;;;;4789355;29;20007;-76
2022/03/18 03:47:18;;;;;;;;;;;1.10;99.90;;;;;;4788837;29;19921;-76
2022/03/18 03:49:47;;;;;;;;;;;1.20;99.90;;;;;;4789153;29;19921;-76
2022/03/18 03:52:12;;;;;;;;;;;1.10;99.90;;;;;;4788767;29;20035;-76
2022/03/18 03:54:38;;;;;;;;;;;1.10;99.90;;;;;;4788975;29;20486;-76
2022/03/18 03:57:04;;;;;;;;;;;1.10;99.90;;;;;;4789132;29;19975;-76
2022/03/18 03:59:30;;;;;;;;;;;1.10;99.90;;;;;;4788976;29;19921;-76
2022/03/18 04:01:56;;;;;;;;;;;1.10;99.90;;;;;;4788811;29;20119;-76
2022/03/18 04:04:22;;;;;;;;;;;1.10;99.90;;;;;;4773673;29;19921;-76
2022/03/18 04:06:48;;;;;;;;;;;1.10;99.90;;;;;;4788647;29;20110;-76
2022/03/18 04:09:15;;;;;;;;;;;1.10;99.90;;;;;;4788921;29;19921;-76
2022/03/18 04:11:40;;;;;;;;;;;1.10;99.90;;;;;;4788870;29;20402;-76
2022/03/18 04:14:06;;;;;;;;;;;1.10;99.90;;;;;;4788599;29;20020;-76
2022/03/18 04:16:31;;;;;;;;;;;1.10;99.90;;;;;;4788787;29;19925;-76
2022/03/18 04:18:56;;;;;;;;;;;1.10;99.90;;;;;;4788683;29;19921;-76
2022/03/18 04:21:22;;;;;;;;;;;1.00;99.90;;;;;;4805043;29;19921;-75
2022/03/18 04:23:47;;;;;;;;;;;1.10;99.90;;;;;;4788189;29;19944;-75
2022/03/18 04:26:13;;;;;;;;;;;1.10;99.90;;;;;;4788759;29;19928;-76
2022/03/18 04:28:38;;;;;;;;;;;1.10;99.90;;;;;;4788681;29;20056;-76
2022/03/18 04:31:04;;;;;;;;;;;1.10;99.90;;;;;;4788839;29;20338;-76
2022/03/18 04:33:29;;;;;;;;;;;1.10;99.90;;;;;;4788438;29;19932;-76
2022/03/18 04:35:55;;;;;;;;;;;1.10;99.90;;;;;;4788303;29;20294;-76
2022/03/18 04:38:20;;;;;;;;;;;1.00;99.90;;;;;;4788760;29;19925;-76
2022/03/18 04:40:46;;;;;;;;;;;0.90;99.90;;;;;;4787872;29;19921;-76
2022/03/18 04:43:11;;;;;;;;;;;0.90;99.90;;;;;;4788429;29;19921;-76
2022/03/18 04:45:37;;;;;;;;;;;0.80;99.90;;;;;;4788358;29;19959;-76
2022/03/18 04:48:03;;;;;;;;;;;0.90;99.90;;;;;;4788603;29;20380;-76
2022/03/18 04:50:29;;;;;;;;;;;0.90;99.90;;;;;;4788513;29;20269;-76
2022/03/18 04:52:55;;;;;;;;;;;0.90;99.90;;;;;;4788269;29;20373;-76
2022/03/18 04:55:20;;;;;;;;;;;0.90;99.90;;;;;;4787716;29;19921;-76
2022/03/18 04:57:46;;;;;;;;;;;1.00;99.90;;;;;;4788050;29;19927;-76
2022/03/18 05:00:12;;;;;;;;;;;1.00;99.90;;;;;;4788101;29;20020;-76
2022/03/18 05:02:38;;;;;;;;;;;1.00;99.90;;;;;;4788208;29;20356;-76
2022/03/18 05:05:04;;;;;;;;;;;1.00;99.90;;;;;;4788337;29;19925;-76
2022/03/18 05:07:31;;;;;;;;;;;0.90;99.90;;;;;;4788175;29;19929;-76
2022/03/18 05:09:56;;;;;;;;;;;0.90;99.90;;;;;;4787929;29;19921;-75
2022/03/18 05:12:22;;;;;;;;;;;1.00;99.90;;;;;;4788077;29;19921;-75
2022/03/18 05:14:49;;;;;;;;;;;1.00;99.90;;;;;;4788042;29;19929;-75
2022/03/18 05:17:14;;;;;;;;;;;1.00;99.90;;;;;;4788319;29;20253;-76
2022/03/18 05:19:40;;;;;;;;;;;1.00;99.90;;;;;;4787769;29;19975;-76
2022/03/18 05:22:06;;;;;;;;;;;1.10;99.90;;;;;;4791069;29;19921;-76
2022/03/18 05:24:32;;;;;;;;;;;1.00;99.90;;;;;;4792040;29;19969;-76
2022/03/18 05:26:58;;;;;;;;;;;1.10;99.90;;;;;;4791250;29;20435;-76
2022/03/18 05:29:25;;;;;;;;;;;1.10;99.90;;;;;;4791289;29;19925;-76
2022/03/18 05:31:51;;;;;;;;;;;1.10;99.90;;;;;;4791182;29;19925;-76
2022/03/18 05:34:16;;;;;;;;;;;1.10;99.90;;;;;;4791278;29;19936;-76
2022/03/18 05:36:42;;;;;;;;;;;1.10;99.90;;;;;;4807401;29;20414;-76
2022/03/18 05:39:08;;;;;;;;;;;1.10;99.90;;;;;;4791341;29;20365;-76
2022/03/18 05:41:33;;;;;;;;;;;1.10;99.90;;;;;;4790981;29;19921;-76
2022/03/18 05:43:59;;;;;;;;;;;1.10;99.90;;;;;;4790640;29;19921;-76
2022/03/18 05:46:25;;;;;;;;;;;1.10;99.90;;;;;;4791003;29;19921;-76
2022/03/18 05:48:50;;;;;;;;;;;1.10;99.90;;;;;;4791279;29;20300;-76
2022/03/18 05:51:16;;;;;;;;;;;1.10;99.90;;;;;;4790952;29;19927;-76
2022/03/18 05:53:41;;;;;;;;;;;1.10;99.90;;;;;;4791026;29;19932;-76
2022/03/18 05:58:51;;;;;;;;;;;1.10;99.90;;;;;;4791074;29;19937;-76
2022/03/18 06:01:17;;;;;;;;;;;1.10;99.90;;;;;;4790311;29;20016;-76
2022/03/18 06:03:42;;;;;;;;;;;1.10;99.90;;;;;;4791015;29;20296;-76
2022/03/18 06:06:08;;;;;;;;;;;1.10;99.90;;;;;;4790720;29;20388;-76
2022/03/18 06:14:02;;;;;;;;;;;1.20;99.90;;;;;;4790636;29;19932;-75
2022/03/18 06:16:27;;;;;;;;;;;1.20;99.90;;;;;;4790444;29;19921;-75
2022/03/18 06:18:54;;;;;;;;;;;1.30;99.90;;;;;;4807039;29;19980;-76
2022/03/18 06:21:23;;;;;;;;;;;1.30;99.90;;;;;;4790857;29;19928;-77
2022/03/18 06:23:48;;;;;;;;;;;1.40;99.90;;;;;;4790619;29;20408;-76
2022/03/18 06:26:14;;;;;;;;;;;1.40;99.90;;;;;;4790425;29;19921;-76
2022/03/18 06:28:39;;;;;;;;;;;1.50;99.90;;;;;;4790568;29;19968;-76
2022/03/18 06:31:06;;;;;;;;;;;1.50;99.90;;;;;;4790353;29;19921;-78
2022/03/18 06:33:32;;;;;;;;;;;1.60;99.90;;;;;;4788774;29;19925;-77
2022/03/18 06:35:58;;;;;;;;;;;1.70;99.90;;;;;;4790484;29;19921;-76
2022/03/18 06:38:23;;;;;;;;;;;1.70;99.90;;;;;;4790397;29;19928;-76
2022/03/18 06:40:49;;;;;;;;;;;1.70;99.90;;;;;;4790140;29;20400;-76
2022/03/18 06:43:14;;;;;;;;;;;1.80;99.90;;;;;;4790554;29;19921;-76
2022/03/18 06:45:41;;;;;;;;;;;1.80;99.90;;;;;;4790112;29;19993;-76
2022/03/18 06:48:06;;;;;;;;;;;2.00;99.90;;;;;;4790401;29;20000;-77
2022/03/18 06:50:32;;;;;;;;;;;2.00;99.90;;;;;;4789979;29;19929;-77
2022/03/18 06:52:57;;;;;;;;;;;2.00;99.90;;;;;;4789857;29;19925;-77
2022/03/18 06:55:23;;;;;;;;;;;2.20;99.90;;;;;;4789979;29;19921;-77
2022/03/18 06:57:48;;;;;;;;;;;2.20;99.90;;;;;;4790097;29;19921;-77
2022/03/18 07:00:14;;;;;;;;;;;2.30;99.90;;;;;;4789660;29;19921;-77
2022/03/18 07:02:39;;;;;;;;;;;2.40;99.90;;;;;;4789993;29;19921;-77
2022/03/18 07:05:05;;;;;;;;;;;2.50;99.90;;;;;;4789568;29;19920;-77
2022/03/18 07:07:30;;;;;;;;;;;2.60;99.90;;;;;;4789355;29;20342;-77
2022/03/18 07:09:56;;;;;;;;;;;2.70;99.90;;;;;;4774707;29;20297;-77
2022/03/18 07:12:21;;;;;;;;;;;2.80;99.90;;;;;;4789785;29;19972;-77
2022/03/18 07:14:47;;;;;;;;;;;2.90;99.90;;;;;;4789484;29;19936;-76
2022/03/18 07:19:56;;;;;;;;;;;3.10;99.90;;;;;;4789329;29;19921;-77
2022/03/18 07:22:24;;;;;;;;;;;3.20;99.90;;;;;;4789706;29;19921;-77
2022/03/18 07:24:49;;;;;;;;;;;3.40;99.90;;;;;;4789293;29;19983;-77
2022/03/18 07:27:16;;;;;;;;;;;3.50;99.90;;;;;;4805591;29;19964;-77
2022/03/18 07:29:42;;;;;;;;;;;3.60;99.90;;;;;;4789101;29;19944;-77
2022/03/18 07:32:07;;;;;;;;;;;3.80;99.90;;;;;;4789375;29;19972;-77
2022/03/18 07:34:33;;;;;;;;;;;3.90;99.90;;;;;;4789293;29;19954;-77
2022/03/18 07:36:58;;;;;;;;;;;4.00;99.90;;;;;;4788935;29;20307;-77
2022/03/18 07:39:24;;;;;;;;;;;4.20;99.90;;;;;;4789351;29;20265;-77
2022/03/18 07:41:49;;;;;;;;;;;4.40;99.90;;;;;;4788872;29;19964;-77
2022/03/18 07:44:15;;;;;;;;;;;4.50;99.90;;;;;;4788903;29;20011;-77
2022/03/18 07:46:40;;;;;;;;;;;4.60;99.90;;;;;;4788913;29;19925;-76
2022/03/18 07:49:06;;;;;;;;;;;4.80;99.90;;;;;;4788730;29;19968;-76
2022/03/18 07:51:31;;;;;;;;;;;4.90;99.90;;;;;;4788881;29;19952;-76
2022/03/18 07:53:57;;;;;;;;;;;5.00;99.90;;;;;;4788981;29;19925;-76
2022/03/18 07:56:22;;;;;;;;;;;5.20;99.90;;;;;;4789144;29;19921;-76
2022/03/18 07:58:48;;;;;;;;;;;5.30;99.90;;;;;;4788899;29;19964;-77
2022/03/18 08:01:13;;;;;;;;;;;5.40;99.90;;;;;;4788945;29;20011;-77
2022/03/18 08:03:39;;;;;;;;;;;5.60;99.90;;;;;;4788591;29;19925;-79
2022/03/18 08:06:04;;;;;;;;;;;5.70;99.90;;;;;;4825372;24;19925;-78
2022/03/18 08:08:31;;;;;;;;;;;5.90;99.90;;;;;;4806857;29;19928;-79
2022/03/18 08:10:57;;;;;;;;;;;6.10;99.90;;;;;;4807310;29;19950;-80
2022/03/18 08:13:41;;;;;;;;;;;6.40;99.90;;;;;;4840910;29;19924;-79
2022/03/18 08:16:15;;;;;;;;;;;6.60;99.90;;;;;;4824685;29;20284;-79
2022/03/18 08:18:44;;;;;;;;;;;6.80;99.90;;;;;;4824826;29;20367;-76
2022/03/18 08:21:23;;;;;;;;;;;7.10;99.90;;;;;;4815611;29;19921;-76
2022/03/18 08:24:02;;;;;;;;;;;7.20;99.90;;;;;;4824689;29;20011;-76
2022/03/18 08:26:33;;;;;;;;;;;7.50;99.90;;;;;;4806037;29;19925;-77
2022/03/18 08:29:04;;;;;;;;;;;7.70;99.90;;;;;;4814487;29;19920;-76
2022/03/18 08:31:30;;;;;;;;;;;7.80;99.90;;;;;;4809986;29;19920;-77
2022/03/18 08:34:25;;;;;;;;;;;8.00;99.90;;;;;;4824740;29;19996;-77
2022/03/18 08:36:53;;;;;;;;;;;8.10;99.90;;;;;;4824639;29;19975;-78
2022/03/18 08:39:19;;;;;;;;;;;8.30;99.90;;;;;;4821960;29;19924;-78
2022/03/18 08:41:47;;;;;;;;;;;8.30;99.90;;;;;;4791437;29;19931;-78
2022/03/18 08:44:19;;;;;;;;;;;8.40;99.90;;;;;;4806049;29;19920;-79
2022/03/18 08:50:06;;;;;;;;;;;8.70;99.90;;;;;;4805779;29;20064;-78
2022/03/18 08:52:34;;;;;;;;;;;8.90;99.90;;;;;;4836998;29;19921;-77
2022/03/18 08:55:02;;;;;;;;;;;9.10;99.90;;;;;;4806287;29;20281;-78
2022/03/18 08:57:28;;;;;;;;;;;9.10;99.90;;;;;;4809826;29;19993;-78
2022/03/18 08:59:57;;;;;;;;;;;9.30;99.90;;;;;;4847913;29;19920;-78
2022/03/18 09:02:22;;;;;;;;;;;9.40;99.90;;;;;;4810321;29;20039;-78
2022/03/18 09:04:48;;;;;;;;;;;9.40;99.90;;;;;;4824502;29;19956;-77
2022/03/18 09:07:14;;;;;;;;;;;9.50;99.90;;;;;;4809586;29;20284;-77
2022/03/18 09:09:39;;;;;;;;;;;9.60;99.90;;;;;;4809597;29;19931;-78
2022/03/18 09:12:05;;;;;;;;;;;9.70;99.90;;;;;;4809325;29;20343;-77
2022/03/18 09:14:31;;;;;;;;;;;9.90;99.90;;;;;;4827190;29;19949;-77
2022/03/18 09:16:56;;;;;;;;;;;10.10;99.90;;;;;;4827495;29;19921;-77
2022/03/18 09:19:23;;;;;;;;;;;10.30;99.90;;;;;;4844059;29;19920;-77
2022/03/18 09:21:49;;;;;;;;;;;10.40;99.90;;;;;;4827457;29;19921;-78
2022/03/18 09:24:14;;;;;;;;;;;10.50;99.90;;;;;;4827353;29;20052;-78
2022/03/18 09:26:40;;;;;;;;;;;10.70;99.90;;;;;;4827020;29;19931;-77
2022/03/18 09:29:06;;;;;;;;;;;10.90;99.90;;;;;;4802425;29;19925;-78
2022/03/18 09:31:31;;;;;;;;;;;11.00;99.90;;;;;;4824308;29;19921;-78
2022/03/18 09:33:58;;;;;;;;;;;11.10;99.90;;;;;;4824154;29;20300;-78
2022/03/18 09:36:23;;;;;;;;;;;11.20;99.90;;;;;;4824101;29;19956;-78
2022/03/18 09:38:50;;;;;;;;;;;11.40;99.90;;;;;;4808970;29;20348;-78
2022/03/18 09:41:16;;;;;;;;;;;11.70;99.90;;;;;;4794179;29;19955;-79
2022/03/18 09:43:42;;;;;;;;;;;11.90;99.90;;;;;;4825415;29;20015;-79
2022/03/18 09:46:11;;;;;;;;;;;11.90;99.90;;;;;;4808791;29;19920;-78
2022/03/18 09:48:38;;;;;;;;;;;12.00;99.90;;;;;;4809084;29;19921;-79
2022/03/18 09:51:04;;;;;;;;;;;12.20;99.90;;;;;;4809192;29;20280;-79
2022/03/18 09:53:29;;;;;;;;;;;12.20;99.90;;;;;;4808858;29;19925;-79
2022/03/18 09:55:55;;;;;;;;;;;12.20;99.90;;;;;;4808673;29;19956;-79
2022/03/18 09:58:21;;;;;;;;;;;12.30;99.90;;;;;;4815468;29;20415;-79
2022/03/18 10:00:47;;;;;;;;;;;12.50;99.90;;;;;;4827090;29;20406;-77
2022/03/18 10:03:16;;;;;;;;;;;12.70;99.90;;;;;;4826860;29;19920;-78
2022/03/18 10:05:49;;;;;;;;;;;12.70;99.90;;;;;;4826628;29;19920;-78
2022/03/18 10:08:15;;;;;;;;;;;12.90;99.90;;;;;;4826836;29;19920;-78
2022/03/18 10:10:45;;;;;;;;;;;13.00;99.90;;;;;;4826565;29;20284;-78
2022/03/18 10:13:12;;;;;;;;;;;13.10;99.90;;;;;;4819077;29;19928;-78
2022/03/18 10:15:38;;;;;;;;;;;13.20;99.90;;;;;;4825440;29;20216;-78
2022/03/18 10:18:04;;;;;;;;;;;13.20;99.90;;;;;;4813101;29;19937;-79
2022/03/18 10:20:29;;;;;;;;;;;13.20;99.90;;;;;;4813965;29;19932;-79
2022/03/18 10:22:57;;;;;;;;;;;13.20;99.90;;;;;;4814002;29;20031;-78
2022/03/18 10:25:52;;;;;;;;;;;13.40;99.90;;;;;;4811240;29;20408;-78
2022/03/18 10:28:36;;;;;;;;;;;13.70;99.90;;;;;;4806977;29;19927;-79
2022/03/18 10:31:14;;;;;;;;;;;13.90;99.90;;;;;;4812407;29;19974;-78
2022/03/18 10:39:25;;;;;;;;;;;14.20;99.90;;;;;;4808333;29;20376;-79
2022/03/18 10:41:50;;;;;;;;;;;14.30;99.90;;;;;;4793190;29;19932;-79
2022/03/18 10:44:17;;;;;;;;;;;14.40;99.90;;;;;;4823109;29;19920;-80
2022/03/18 10:46:43;;;;;;;;;;;14.50;99.90;;;;;;4808320;29;19920;-79
2022/03/18 10:49:10;;;;;;;;;;;14.60;99.90;;;;;;4823377;29;19928;-79
2022/03/18 10:51:36;;;;;;;;;;;14.80;99.90;;;;;;4808331;29;19924;-79
2022/03/18 10:54:01;;;;;;;;;;;14.90;99.90;;;;;;4810028;29;20399;-80
2022/03/18 10:56:27;;;;;;;;;;;15.10;99.90;;;;;;4808986;29;19927;-79
2022/03/18 10:58:52;;;;;;;;;;;15.20;99.90;;;;;;4808711;29;20419;-80
2022/03/18 11:01:18;;;;;;;;;;;15.40;99.90;;;;;;4809383;29;20337;-79
2022/03/18 11:03:45;;;;;;;;;;;15.60;99.90;;;;;;4808318;29;19921;-79
2022/03/18 11:06:11;;;;;;;;;;;15.70;99.90;;;;;;4807553;29;20012;-80
2022/03/18 11:08:49;;;;;;;;;;;15.90;99.90;;;;;;4809508;29;19997;-81
2022/03/18 11:11:18;;;;;;;;;;;16.10;99.90;;;;;;4810138;29;19921;-80
2022/03/18 11:13:50;;;;;;;;;;;16.30;99.90;;;;;;4808213;29;20376;-80
2022/03/18 11:16:17;;;;;;;;;;;16.30;99.90;;;;;;4810348;29;19946;-80
2022/03/18 11:18:43;;;;;;;;;;;16.30;99.90;;;;;;4809102;29;19920;-80
2022/03/18 11:21:09;;;;;;;;;;;16.50;99.90;;;;;;4810680;29;19927;-80
2022/03/18 11:23:37;;;;;;;;;;;16.50;99.90;;;;;;4818088;29;20287;-80
2022/03/18 11:26:03;;;;;;;;;;;16.70;99.90;;;;;;4810205;29;19921;-80
2022/03/18 11:28:29;;;;;;;;;;;17.00;99.90;;;;;;4812305;29;19928;-80
2022/03/18 11:31:01;;;;;;;;;;;17.10;99.90;;;;;;4811433;29;19976;-80
2022/03/18 11:33:26;;;;;;;;;;;17.00;99.90;;;;;;4827936;29;19925;-80
2022/03/18 11:35:52;;;;;;;;;;;17.10;98.90;;;;;;4811307;29;19927;-80
2022/03/18 11:38:17;;;;;;;;;;;17.00;99.90;;;;;;4814758;29;19943;-80
2022/03/18 11:40:53;;;;;;;;;;;16.80;99.90;;;;;;4829597;29;20398;-80
2022/03/18 11:43:35;;;;;;;;;;;16.90;99.90;;;;;;4830759;29;19927;-80
2022/03/18 11:46:13;;;;;;;;;;;17.20;99.90;;;;;;4829680;29;19971;-80
2022/03/18 11:48:41;;;;;;;;;;;17.20;97.20;;;;;;4830001;29;19924;-80
2022/03/18 11:51:25;;;;;;;;;;;17.10;99.20;;;;;;4830816;29;20272;-80
2022/03/18 11:53:53;;;;;;;;;;;17.20;99.90;;;;;;4826953;29;19924;-80
2022/03/18 11:56:20;;;;;;;;;;;16.90;94.20;;;;;;4795618;29;19967;-80
2022/03/18 11:58:45;;;;;;;;;;;16.70;96.80;;;;;;4796493;29;19924;-80
2022/03/18 12:01:30;;;;;;;;;;;16.50;96.30;;;;;;4826155;29;19973;-80
2022/03/18 12:03:57;;;;;;;;;;;16.40;99.90;;;;;;4811096;29;20385;-80
2022/03/18 12:06:22;;;;;;;;;;;16.50;95.60;;;;;;4811893;29;19921;-80
2022/03/18 12:08:54;;;;;;;;;;;16.80;93.20;;;;;;4826318;29;19920;-80
2022/03/18 12:11:24;;;;;;;;;;;16.90;96.70;;;;;;4812418;29;19950;-81
2022/03/18 12:13:49;;;;;;;;;;;17.10;92.70;;;;;;4812849;29;19995;-80
2022/03/18 12:16:18;;;;;;;;;;;17.40;88.20;;;;;;4827900;29;19967;-80
2022/03/18 12:18:43;;;;;;;;;;;17.60;78.70;;;;;;4813613;29;20205;-80
2022/03/18 12:21:09;;;;;;;;;;;17.60;84.20;;;;;;4813307;29;19928;-81
2022/03/18 12:23:35;;;;;;;;;;;17.50;85.40;;;;;;4831317;29;20023;-81
2022/03/18 12:26:04;;;;;;;;;;;17.40;89.50;;;;;;4815232;29;19924;-81
2022/03/18 12:28:42;;;;;;;;;;;17.30;87.20;;;;;;4830376;29;20283;-81
2022/03/18 12:31:15;;;;;;;;;;;17.30;91.20;;;;;;4830152;29;20402;-81
2022/03/18 12:33:40;;;;;;;;;;;17.40;86.50;;;;;;4816908;29;19928;-81
2022/03/18 12:36:06;;;;;;;;;;;17.40;92.50;;;;;;4814916;29;19963;-82
2022/03/18 12:38:31;;;;;;;;;;;17.70;92.80;;;;;;4814420;29;20372;-81
2022/03/18 12:40:58;;;;;;;;;;;18.20;84.20;;;;;;4829683;29;19999;-82
2022/03/18 12:43:25;;;;;;;;;;;18.40;74.60;;;;;;4814117;29;20003;-81
2022/03/18 12:45:50;;;;;;;;;;;18.60;79.50;;;;;;4813949;29;20568;-82
2022/03/18 12:48:17;;;;;;;;;;;18.80;74.60;;;;;;4829251;29;19927;-80
2022/03/18 12:50:47;;;;;;;;;;;19.20;69.10;;;;;;4814298;29;19936;-81
2022/03/18 12:53:17;;;;;;;;;;;19.30;64.00;;;;;;4818411;29;19930;-81
2022/03/18 12:55:43;;;;;;;;;;;19.30;63.90;;;;;;4830681;29;20285;-81
2022/03/18 12:58:10;;;;;;;;;;;19.30;62.70;;;;;;4831883;29;19924;-82
2022/03/18 13:00:39;;;;;;;;;;;19.50;61.70;;;;;;4831269;29;19920;-82
2022/03/18 13:03:06;;;;;;;;;;;19.60;61.30;;;;;;4831220;29;19932;-82
2022/03/18 13:05:32;;;;;;;;;;;19.60;58.50;;;;;;4815304;29;20007;-82
2022/03/18 13:07:58;;;;;;;;;;;19.70;59.40;;;;;;4823835;29;19971;-82
2022/03/18 13:10:23;;;;;;;;;;;19.70;61.40;;;;;;4827450;29;20373;-82
2022/03/18 13:12:49;;;;;;;;;;;19.80;59.20;;;;;;4817491;29;20016;-82
2022/03/18 13:15:16;;;;;;;;;;;19.80;58.10;;;;;;4816179;29;20401;-82
2022/03/18 13:17:42;;;;;;;;;;;19.90;57.50;;;;;;4797125;29;20373;-81
2022/03/18 13:20:21;;;;;;;;;;;19.90;59.30;;;;;;4812572;29;19921;-82
2022/03/18 13:22:46;;;;;;;;;;;19.80;57.70;;;;;;4827450;29;19924;-81
2022/03/18 13:25:12;;;;;;;;;;;19.10;59.70;;;;;;4831319;29;20360;-81
2022/03/18 13:27:37;;;;;;;;;;;18.10;62.70;;;;;;4815347;29;19927;-81
2022/03/18 13:32:50;;;;;;;;;;;18.10;66.30;;;;;;4831190;29;20012;-81
2022/03/18 13:35:17;;;;;;;;;;;18.60;63.30;;;;;;4845943;29;20020;-81
2022/03/18 13:37:42;;;;;;;;;;;18.70;60.20;;;;;;4832103;29;20007;-82
2022/03/18 13:40:09;;;;;;;;;;;18.40;60.70;;;;;;4830793;29;20352;-81
2022/03/18 13:42:34;;;;;;;;;;;18.50;64.50;;;;;;4823461;29;20391;-82
2022/03/18 13:45:00;;;;;;;;;;;18.20;59.30;;;;;;4832140;29;19995;-81
2022/03/18 13:47:27;;;;;;;;;;;18.10;62.70;;;;;;4827957;29;19977;-81
2022/03/18 13:49:54;;;;;;;;;;;18.60;61.70;;;;;;4816006;29;19928;-82
2022/03/18 13:52:30;;;;;;;;;;;18.90;59.00;;;;;;4814917;29;20045;-82
2022/03/18 13:54:55;;;;;;;;;;;19.40;56.20;;;;;;4815455;29;19932;-81
2022/03/18 13:57:21;;;;;;;;;;;19.60;53.90;;;;;;4859758;29;20344;-82
2022/03/18 13:59:59;;;;;;;;;;;19.80;53.90;;;;;;4846249;29;19960;-82
2022/03/18 14:02:28;;;;;;;;;;;20.00;52.40;;;;;;4814935;29;19920;-82
2022/03/18 14:04:55;;;;;;;;;;;20.00;50.80;;;;;;4887091;24;20562;-77
2022/03/18 14:07:21;;;;;;;;;;;19.90;53.10;;;;;;4790481;29;19964;-78
2022/03/18 14:10:03;;;;;;;;;;;20.10;51.70;;;;;;4790706;29;20019;-78
2022/03/18 14:12:29;;;;;;;;;;;20.10;52.20;;;;;;4790704;29;20029;-78
2022/03/18 14:15:07;;;;;;;;;;;19.90;50.60;;;;;;4790446;29;20103;-78
2022/03/18 14:17:33;;;;;;;;;;;19.90;53.90;;;;;;4790552;29;19964;-78
2022/03/18 14:19:58;;;;;;;;;;;20.10;51.60;;;;;;4790865;29;19959;-77
2022/03/18 14:22:31;;;;;;;;;;;20.10;51.90;;;;;;4790049;29;19921;-78
2022/03/18 14:24:57;;;;;;;;;;;20.00;53.40;;;;;;4790344;29;19921;-77
2022/03/18 14:27:22;;;;;;;;;;;20.10;52.80;;;;;;4790277;29;19921;-78
2022/03/18 14:29:48;;;;;;;;;;;19.80;54.20;;;;;;4790482;29;19983;-77
2022/03/18 14:32:13;;;;;;;;;;;19.60;54.10;;;;;;4790000;29;19921;-78
2022/03/18 14:34:39;;;;;;;;;;;19.50;55.70;;;;;;4790212;29;19932;-77
2022/03/18 14:37:04;;;;;;;;;;;19.60;55.10;;;;;;4790281;29;19925;-77
2022/03/18 14:39:30;;;;;;;;;;;19.60;55.40;;;;;;4790303;29;19921;-77
2022/03/18 14:41:55;;;;;;;;;;;19.60;55.40;;;;;;4790407;29;19925;-76
2022/03/18 14:44:21;;;;;;;;;;;19.70;55.70;;;;;;4789951;29;20308;-76
2022/03/18 14:46:46;;;;;;;;;;;19.80;55.30;;;;;;4789901;29;20391;-77
2022/03/18 14:49:12;;;;;;;;;;;20.00;54.70;;;;;;4790029;29;19950;-76
2022/03/18 14:51:37;;;;;;;;;;;19.70;53.70;;;;;;4790430;29;19928;-77
2022/03/18 14:54:03;;;;;;;;;;;19.10;55.40;;;;;;4789208;29;19936;-77
2022/03/18 14:56:28;;;;;;;;;;;18.40;58.60;;;;;;4789622;29;20453;-77